Bodegraven, Netherlands
Current Conditions -  °F | °C
As of 11:55 AM on Monday 20 Oct 2014 (Local Time) from EHAM Reporting Station
Few Clouds Few Clouds  
Wind Chill: 61°   Ceiling: Unl
Heat Index: 61°   Visibility: 6mi
Dew Point: 54°   Wind: 17mph
Humidity: 77%   Direction: 260°W
Pressure: 29.97"   Gusts: NA
Location:  52.08°N, 4.75°E
Report Text: EHAM 200955Z 26015KT 230V290 9999 FEW020TCU 16/12 Q1015 NOSIG
Loading
Personal Weather Stations






























Interactive Weather Map
Tropical Storm Tracking
New forecast layout! Learn more

10-Day Weather Forecast

Advertisements
Track Severe Weather on mobile